Time;durP1;ratioP1;P1;durP2;ratioP2;P2;SDS_P1;SDS_P2;PMS_P1;PMS_P2;Temp;Humidity;BMP_temperature;BMP_pressure;BME280_temperature;BME280_humidity;BME280_pressure;Samples;Min_cycle;Max_cycle;Signal;HPM_P1;HPM_P2
2024/04/10 00:00:20;;;;;;;0.17;0.10;;;;;;;9.06;100.00;98548.66;5436786;26;20025;-64
2024/04/10 00:02:51;;;;;;;0.60;0.13;;;;;;;8.91;100.00;98558.56;5458953;26;19998;-66
2024/04/10 00:05:17;;;;;;;0.20;0.10;;;;;;;8.73;100.00;98576.59;5451760;26;20367;-64
2024/04/10 00:07:42;;;;;;;0.10;0.10;;;;;;;8.73;100.00;98580.00;5452509;26;19994;-63
2024/04/10 00:10:08;;;;;;;0.47;0.15;;;;;;;8.58;100.00;98579.56;5450885;26;20004;-64
2024/04/10 00:12:34;;;;;;;3.40;0.28;;;;;;;8.59;100.00;98591.53;5453144;26;20005;-64
2024/04/10 00:14:59;;;;;;;1.55;0.32;;;;;;;8.28;100.00;98538.94;5416465;26;19994;-65
2024/04/10 00:17:30;;;;;;;0.68;0.30;;;;;;;8.58;100.00;98561.41;5457498;26;20001;-67
2024/04/10 00:19:56;;;;;;;0.50;0.15;;;;;;;8.72;100.00;98560.19;5419494;26;20002;-63
2024/04/10 00:22:26;;;;;;;0.10;0.10;;;;;;;8.74;100.00;98578.22;5457609;26;20002;-61
2024/04/10 00:24:52;;;;;;;0.10;0.10;;;;;;;8.31;100.00;98540.44;5458502;26;20001;-64
2024/04/10 00:27:18;;;;;;;0.17;0.10;;;;;;;8.55;100.00;98585.00;5418826;26;20073;-63
2024/04/10 00:29:43;;;;;;;0.10;0.10;;;;;;;8.31;100.00;98563.75;5425289;26;20006;-64
2024/04/10 00:32:14;;;;;;;0.65;0.20;;;;;;;8.33;100.00;98604.13;5414776;26;20002;-63
2024/04/10 00:34:41;;;;;;;1.98;0.38;;;;;;;8.54;100.00;98624.00;5433501;26;20142;-63
2024/04/10 00:37:07;;;;;;;0.32;0.13;;;;;;;8.42;100.00;98626.69;5426048;26;20009;-64
2024/04/10 00:39:32;;;;;;;0.10;0.10;;;;;;;8.57;100.00;98615.97;5431851;26;20013;-64
2024/04/10 00:41:58;;;;;;;0.40;0.10;;;;;;;8.48;100.00;98629.72;5424701;26;20058;-64
2024/04/10 00:44:23;;;;;;;0.17;0.10;;;;;;;8.59;100.00;98627.03;5433968;26;20339;-63
2024/04/10 00:46:49;;;;;;;0.17;0.10;;;;;;;8.61;100.00;98614.75;5417681;26;20083;-64
2024/04/10 00:49:14;;;;;;;1.20;0.22;;;;;;;8.49;100.00;98600.25;5454869;26;20708;-64
2024/04/10 00:51:42;;;;;;;0.43;0.32;;;;;;;8.60;100.00;98605.34;5445901;26;19998;-64
2024/04/10 00:54:10;;;;;;;0.30;0.10;;;;;;;8.71;100.00;98605.22;5438798;26;20012;-63
2024/04/10 00:56:35;;;;;;;0.20;0.10;;;;;;;8.64;100.00;98594.56;5434004;26;21651;-62
2024/04/10 00:59:01;;;;;;;0.10;0.10;;;;;;;8.57;100.00;98595.22;5429818;26;20002;-67
2024/04/10 01:01:28;;;;;;;0.10;0.10;;;;;;;8.38;100.00;98591.59;5418758;26;20034;-64
2024/04/10 01:03:56;;;;;;;0.80;0.10;;;;;;;8.50;100.00;98602.69;5432947;26;20885;-64
2024/04/10 01:06:29;;;;;;;0.10;0.10;;;;;;;8.65;100.00;98629.06;5426556;26;20046;-64
2024/04/10 01:08:56;;;;;;;0.50;0.10;;;;;;;8.33;100.00;98562.66;5437792;26;20734;-63
2024/04/10 01:11:24;;;;;;;1.10;0.40;;;;;;;8.53;100.00;98594.69;5442770;26;20002;-63
2024/04/10 01:13:49;;;;;;;0.10;0.10;;;;;;;8.46;100.00;98617.69;5419708;26;19998;-65
2024/04/10 01:16:15;;;;;;;0.47;0.10;;;;;;;8.46;100.00;98585.78;5455042;26;19998;-64
2024/04/10 01:18:40;;;;;;;0.52;0.10;;;;;;;8.52;100.00;98626.72;5458291;26;20046;-65
2024/04/10 01:21:06;;;;;;;0.50;0.20;;;;;;;8.53;100.00;98579.13;5441864;26;20093;-64
2024/04/10 01:23:31;;;;;;;0.00;0.00;;;;;;;8.58;100.00;98608.06;5441509;26;20002;-64
2024/04/10 01:25:56;;;;;;;0.68;0.10;;;;;;;8.56;100.00;98599.59;5430140;26;20000;-63
2024/04/10 01:28:22;;;;;;;0.55;0.20;;;;;;;8.45;100.00;98602.28;5424285;26;20726;-65
2024/04/10 01:30:47;;;;;;;0.30;0.10;;;;;;;8.53;100.00;98594.69;5448235;26;20475;-65
2024/04/10 01:33:13;;;;;;;0.35;0.10;;;;;;;8.57;100.00;98590.03;5420547;26;20017;-63
2024/04/10 01:35:41;;;;;;;0.68;0.20;;;;;;;8.70;100.00;98607.94;5456840;26;20009;-64
2024/04/10 01:38:07;;;;;;;1.17;0.20;;;;;;;8.72;100.00;98599.06;5461625;26;20005;-64
2024/04/10 01:40:32;;;;;;;0.88;0.10;;;;;;;8.79;100.00;98594.19;5412976;26;20005;-64
2024/04/10 01:42:58;;;;;;;0.63;0.20;;;;;;;8.74;100.00;98625.69;5410994;26;20802;-64
2024/04/10 01:45:23;;;;;;;0.22;0.10;;;;;;;8.57;100.00;98556.34;5417771;26;20005;-66
2024/04/10 01:47:50;;;;;;;0.17;0.10;;;;;;;8.70;100.00;98574.25;5435795;26;20916;-65
2024/04/10 01:50:17;;;;;;;1.00;0.20;;;;;;;8.70;100.00;98564.69;5452147;26;20876;-64
2024/04/10 01:52:43;;;;;;;0.10;0.10;;;;;;;8.79;100.00;98574.25;5455196;26;20003;-65
2024/04/10 01:55:08;;;;;;;0.20;0.10;;;;;;;8.84;100.00;98573.88;5456234;26;20351;-68
2024/04/10 01:57:34;;;;;;;0.45;0.10;;;;;;;8.84;100.00;98545.34;5461788;26;19994;-63
2024/04/10 02:00:02;;;;;;;0.25;0.10;;;;;;;8.84;100.00;98563.50;5462655;26;20104;-66
2024/04/10 02:02:27;;;;;;;0.10;0.10;;;;;;;9.01;100.00;98556.81;5475026;26;20105;-66
2024/04/10 02:04:53;;;;;;;0.35;0.13;;;;;;;8.72;100.00;98505.75;5432936;26;20002;-62
2024/04/10 02:07:18;;;;;;;0.43;0.20;;;;;;;8.88;100.00;98507.81;5449283;26;19994;-61
2024/04/10 02:09:44;;;;;;;0.50;0.20;;;;;;;9.07;100.00;98532.09;5430685;26;20048;-65
2024/04/10 02:12:09;;;;;;;0.30;0.10;;;;;;;9.04;100.00;98533.22;5449396;26;19994;-65
2024/04/10 02:14:40;;;;;;;0.63;0.28;;;;;;;9.30;100.00;98527.47;5450903;26;20636;-68
2024/04/10 02:17:05;;;;;;;0.17;0.10;;;;;;;9.32;100.00;98541.09;5452437;26;20009;-67
2024/04/10 02:19:30;;;;;;;0.55;0.20;;;;;;;9.37;100.00;98544.13;5426726;26;20001;-67
2024/04/10 02:21:57;;;;;;;0.35;0.10;;;;;;;9.54;100.00;98524.41;5429366;26;19994;-65
2024/04/10 02:24:22;;;;;;;0.10;0.10;;;;;;;9.59;100.00;98498.84;5421458;26;20013;-65
2024/04/10 02:26:51;;;;;;;0.57;0.20;;;;;;;9.34;100.00;98461.34;5440693;26;20727;-70
2024/04/10 02:29:17;;;;;;;2.40;0.22;;;;;;;9.22;100.00;98442.53;5454464;26;20046;-66
2024/04/10 02:31:44;;;;;;;1.00;0.20;;;;;;;9.34;100.00;98479.50;5448236;26;20066;-70
2024/04/10 02:34:11;;;;;;;0.60;0.10;;;;;;;9.40;100.00;98463.38;5464608;26;20016;-66
2024/04/10 02:36:37;;;;;;;0.25;0.17;;;;;;;9.55;100.00;98455.97;5486330;26;20010;-69
2024/04/10 02:39:02;;;;;;;0.85;0.20;;;;;;;9.56;100.00;98445.41;5428484;26;20022;-65
2024/04/10 02:41:30;;;;;;;0.45;0.10;;;;;;;9.40;100.00;98367.34;5473506;26;20009;-66
2024/04/10 02:43:56;;;;;;;0.52;0.10;;;;;;;9.74;100.00;98393.56;5429864;26;19997;-66
2024/04/10 02:46:21;;;;;;;0.35;0.10;;;;;;;9.83;100.00;98391.88;5488792;26;20425;-65
2024/04/10 02:48:49;;;;;;;0.13;0.10;;;;;;;9.71;100.00;98370.50;5463166;26;20364;-64
2024/04/10 02:51:15;;;;;;;0.22;0.13;;;;;;;9.85;100.00;98409.94;5463485;26;20069;-66
2024/04/10 02:53:40;;;;;;;0.20;0.10;;;;;;;9.58;100.00;98341.47;5425224;26;20843;-65
2024/04/10 02:56:05;;;;;;;0.75;0.15;;;;;;;9.67;100.00;98355.34;5446421;26;20002;-67
2024/04/10 02:58:31;;;;;;;1.48;0.17;;;;;;;9.90;100.00;98387.75;5460375;26;20030;-71
2024/04/10 03:00:57;;;;;;;0.73;0.20;;;;;;;9.75;100.00;98332.91;5449446;26;19997;-64
2024/04/10 03:03:24;;;;;;;0.55;0.10;;;;;;;9.93;100.00;98360.66;5445745;26;20565;-65
2024/04/10 03:06:00;;;;;;;2.40;0.75;;;;;;;10.04;100.00;98370.84;5431860;26;20012;-64
2024/04/10 03:08:25;;;;;;;3.25;0.20;;;;;;;10.03;100.00;98394.38;5432735;26;20008;-67
2024/04/10 03:10:52;;;;;;;0.85;0.13;;;;;;;10.09;100.00;98354.81;5462144;26;19997;-67
2024/04/10 03:13:20;;;;;;;0.52;0.13;;;;;;;10.12;100.00;98370.94;5478468;26;20859;-65
2024/04/10 03:15:45;;;;;;;0.40;0.10;;;;;;;9.69;100.00;98278.97;5450046;26;19997;-63
2024/04/10 03:18:11;;;;;;;0.32;0.10;;;;;;;9.96;100.00;98313.63;5439899;26;20496;-66
2024/04/10 03:20:37;;;;;;;0.38;0.13;;;;;;;10.00;100.00;98323.56;5483788;26;20002;-69
2024/04/10 03:23:03;;;;;;;0.80;0.25;;;;;;;9.81;100.00;98269.97;5431970;26;20014;-64
2024/04/10 03:25:29;;;;;;;0.40;0.10;;;;;;;10.08;100.00;98304.66;5446465;26;20013;-63
2024/04/10 03:27:54;;;;;;;0.43;0.10;;;;;;;10.31;100.00;98341.44;5452638;26;20010;-63
2024/04/10 03:30:22;;;;;;;1.27;0.10;;;;;;;10.15;100.00;98284.91;5426530;26;20018;-68
2024/04/10 03:32:50;;;;;;;0.65;0.20;;;;;;;10.39;100.00;98325.06;5449204;26;20010;-68
2024/04/10 03:35:16;;;;;;;0.63;0.15;;;;;;;10.47;100.00;98330.31;5419627;26;20016;-70
2024/04/10 03:37:41;;;;;;;0.75;0.10;;;;;;;10.44;100.00;98299.47;5430953;26;19993;-68
2024/04/10 03:40:07;;;;;;;1.02;0.30;;;;;;;10.65;100.00;98316.50;5471260;26;20050;-73
2024/04/10 03:42:35;;;;;;;0.10;0.10;;;;;;;10.66;100.00;98320.72;5444983;26;20131;-63
2024/04/10 03:45:03;;;;;;;0.75;0.10;;;;;;;10.58;100.00;98293.69;5452286;26;20546;-71
2024/04/10 03:47:29;;;;;;;1.20;0.20;;;;;;;10.85;100.00;98337.91;5426407;26;19994;-63
2024/04/10 03:49:54;;;;;;;0.17;0.10;;;;;;;10.81;100.00;98331.41;5445322;26;19994;-62
2024/04/10 03:52:24;;;;;;;1.65;0.30;;;;;;;11.04;99.76;98349.88;5443382;26;19993;-65
2024/04/10 03:54:50;;;;;;;1.00;0.40;;;;;;;11.08;79.85;98344.22;5444414;26;20002;-66
2024/04/10 03:57:16;;;;;;;0.43;0.15;;;;;;;10.92;76.53;98303.31;5423172;26;20048;-68
2024/04/10 03:59:41;;;;;;;0.25;0.10;;;;;;;11.08;68.59;98309.56;5410454;26;20053;-62
2024/04/10 04:02:07;;;;;;;2.13;0.22;;;;;;;11.32;69.42;98337.53;5439167;26;20056;-66
2024/04/10 04:04:32;;;;;;;1.55;0.10;;;;;;;11.47;68.83;98328.13;5448630;26;20371;-63
2024/04/10 04:06:58;;;;;;;1.52;0.17;;;;;;;11.32;71.19;98338.31;5496454;26;20010;-63
2024/04/10 04:09:25;;;;;;;0.20;0.15;;;;;;;11.28;68.73;98338.78;5452436;26;20013;-66
2024/04/10 04:11:51;;;;;;;0.95;0.30;;;;;;;11.15;70.52;98334.00;5432227;26;20316;-66
2024/04/10 04:14:16;;;;;;;0.98;0.47;;;;;;;11.22;72.28;98365.44;5440480;26;20077;-64
2024/04/10 04:16:44;;;;;;;1.02;0.15;;;;;;;11.04;71.82;98344.69;5442847;26;20540;-63
2024/04/10 04:19:10;;;;;;;0.95;0.13;;;;;;;11.00;73.80;98336.38;5427862;26;20002;-61
2024/04/10 04:21:37;;;;;;;0.73;0.20;;;;;;;11.04;72.12;98353.28;5460102;26;20010;-68
2024/04/10 04:24:03;;;;;;;0.10;0.10;;;;;;;11.05;70.48;98354.94;5429247;26;20104;-60
2024/04/10 04:26:28;;;;;;;0.65;0.10;;;;;;;11.08;72.14;98340.78;5458000;26;20087;-65
2024/04/10 04:28:53;;;;;;;1.70;0.30;;;;;;;11.23;69.88;98339.25;5458730;26;20013;-64
2024/04/10 04:31:22;;;;;;;0.95;0.10;;;;;;;11.18;73.56;98375.34;5444835;26;20625;-64
2024/04/10 04:33:48;;;;;;;0.93;0.20;;;;;;;11.14;69.20;98304.56;5410111;26;20547;-62
2024/04/10 04:36:13;;;;;;;0.38;0.10;;;;;;;11.45;71.44;98350.91;5446387;26;20031;-66
2024/04/10 04:38:39;;;;;;;1.40;0.30;;;;;;;11.54;71.88;98380.41;5429251;26;20018;-64
2024/04/10 04:41:06;;;;;;;1.02;0.20;;;;;;;11.44;70.49;98385.72;5437443;26;20446;-64
2024/04/10 04:43:32;;;;;;;0.52;0.20;;;;;;;11.43;70.02;98411.94;5437990;26;19998;-64
2024/04/10 04:45:58;;;;;;;1.20;0.10;;;;;;;11.41;71.52;98430.31;5463767;26;20031;-64
2024/04/10 04:48:23;;;;;;;0.60;0.20;;;;;;;10.94;71.92;98384.63;5434125;26;19994;-61
2024/04/10 04:50:49;;;;;;;0.63;0.10;;;;;;;11.04;74.92;98430.53;5423673;26;19990;-65
2024/04/10 04:53:15;;;;;;;0.60;0.10;;;;;;;11.17;71.21;98449.19;5432265;26;20002;-66
2024/04/10 04:55:42;;;;;;;1.63;0.40;;;;;;;11.06;74.37;98431.19;5403436;26;20005;-67
2024/04/10 04:58:08;;;;;;;0.35;0.17;;;;;;;10.92;73.88;98441.19;5408094;26;20416;-69
2024/04/10 05:00:34;;;;;;;0.45;0.20;;;;;;;10.85;74.73;98449.75;5410339;26;20063;-66
2024/04/10 05:03:00;;;;;;;0.10;0.10;;;;;;;10.77;74.40;98429.72;5425437;26;20010;-69
2024/04/10 05:05:26;;;;;;;0.63;0.10;;;;;;;10.74;78.81;98445.59;5445210;26;20003;-70
2024/04/10 05:07:52;;;;;;;0.30;0.10;;;;;;;10.60;84.92;98438.31;5424744;26;20400;-73
2024/04/10 05:10:21;;;;;;;0.22;0.13;;;;;;;10.64;78.17;98426.66;5445446;26;20017;-66
2024/04/10 05:14:24;;;;;;;0.52;0.20;;;;;;;10.63;80.56;98431.03;5503720;25;20078;-66
2024/04/10 05:16:50;;;;;;;0.25;0.10;;;;;;;10.67;78.06;98426.38;5437099;26;20014;-68
2024/04/10 05:19:16;;;;;;;2.28;0.20;;;;;;;10.75;78.25;98418.59;5469888;26;20017;-73
2024/04/10 05:21:41;;;;;;;0.60;0.10;;;;;;;10.83;74.37;98425.69;5474733;26;20785;-63
2024/04/10 05:24:07;;;;;;;0.10;0.10;;;;;;;10.74;72.13;98384.00;5442413;26;20079;-76
2024/04/10 05:26:34;;;;;;;0.70;0.20;;;;;;;11.07;72.67;98430.25;5454069;26;20010;-72
2024/04/10 05:29:01;;;;;;;1.10;0.20;;;;;;;10.93;74.68;98385.59;5455882;26;19997;-64
2024/04/10 05:31:26;;;;;;;0.55;0.13;;;;;;;11.45;69.12;98423.81;5453543;26;20478;-70
2024/04/10 05:33:55;;;;;;;0.60;0.20;;;;;;;11.50;69.57;98421.56;5463844;26;20006;-71
2024/04/10 05:36:20;;;;;;;1.63;0.40;;;;;;;11.54;67.86;98433.28;5427875;26;20017;-64
2024/04/10 05:38:46;;;;;;;0.20;0.10;;;;;;;11.72;64.73;98412.38;5469094;25;20445;-71
2024/04/10 05:41:14;;;;;;;0.47;0.10;;;;;;;11.77;63.42;98395.47;5418290;26;20448;-69
2024/04/10 05:43:42;;;;;;;0.22;0.10;;;;;;;11.89;63.23;98420.25;5454529;26;20630;-69
2024/04/10 05:46:10;;;;;;;0.10;0.10;;;;;;;11.95;61.92;98424.84;5444262;26;20491;-69
2024/04/10 05:48:36;;;;;;;1.00;0.10;;;;;;;12.20;60.06;98435.38;5474276;26;20009;-67
2024/04/10 05:51:02;;;;;;;0.80;0.20;;;;;;;12.19;60.24;98436.31;5480526;25;19998;-67
2024/04/10 05:53:31;;;;;;;0.20;0.20;;;;;;;12.23;60.63;98427.19;5428565;26;20004;-65
2024/04/10 05:55:59;;;;;;;0.57;0.20;;;;;;;12.14;60.09;98405.53;5453546;26;20001;-62
2024/04/10 05:58:24;;;;;;;0.60;0.10;;;;;;;12.12;61.15;98420.53;5453598;25;20039;-63
2024/04/10 06:00:52;;;;;;;0.50;0.20;;;;;;;11.70;62.84;98395.25;5423510;26;20044;-67
2024/04/10 06:03:17;;;;;;;2.45;0.22;;;;;;;11.58;66.12;98388.72;5427831;26;20153;-67
2024/04/10 06:05:42;;;;;;;0.20;0.10;;;;;;;11.54;64.59;98430.69;5456985;26;20458;-65
2024/04/10 06:08:08;;;;;;;0.30;0.10;;;;;;;11.39;68.77;98413.19;5460645;26;20002;-71
2024/04/10 06:10:33;;;;;;;0.90;0.22;;;;;;;11.29;68.80;98416.72;5454941;26;20007;-69
2024/04/10 06:12:59;;;;;;;1.90;0.20;;;;;;;11.27;67.98;98436.88;5461546;26;20014;-69
2024/04/10 06:15:24;;;;;;;0.43;0.13;;;;;;;14.10;61.33;98416.66;5456092;26;20013;-72
2024/04/10 06:17:49;;;;;;;0.63;0.20;;;;;;;12.41;67.11;98430.53;5458685;26;20482;-69
2024/04/10 06:20:15;;;;;;;0.15;0.10;;;;;;;12.48;65.62;98421.09;5484202;25;20005;-64
2024/04/10 06:22:42;;;;;;;0.28;0.10;;;;;;;12.38;67.06;98423.00;5443578;26;20071;-67
2024/04/10 06:25:09;;;;;;;0.60;0.20;;;;;;;12.47;66.86;98403.78;5468767;26;20003;-70
2024/04/10 06:27:34;;;;;;;0.30;0.15;;;;;;;12.37;65.59;98425.78;5408148;26;19999;-68
2024/04/10 06:30:02;;;;;;;1.17;0.20;;;;;;;12.44;68.67;98414.53;5408097;26;20014;-67
2024/04/10 06:32:27;;;;;;;0.65;0.20;;;;;;;12.59;65.17;98412.09;5448219;26;20055;-66
2024/04/10 06:34:52;;;;;;;0.45;0.20;;;;;;;12.60;63.52;98402.50;5441915;26;20003;-68
2024/04/10 06:37:18;;;;;;;0.20;0.10;;;;;;;12.59;62.89;98395.66;5424023;26;20072;-68
2024/04/10 06:39:44;;;;;;;1.42;0.20;;;;;;;12.47;62.47;98322.94;5446088;26;20781;-73
2024/04/10 06:42:10;;;;;;;0.50;0.20;;;;;;;12.93;61.26;98369.38;5411511;26;20323;-69
2024/04/10 06:44:38;;;;;;;0.60;0.10;;;;;;;12.81;58.99;98344.59;5447315;26;20014;-71
2024/04/10 06:47:03;;;;;;;1.77;0.28;;;;;;;12.98;60.99;98361.88;5431132;26;20014;-71
2024/04/10 06:49:28;;;;;;;7.53;1.00;;;;;;;12.90;61.35;98377.53;5421293;26;20009;-71
2024/04/10 06:51:55;;;;;;;1.00;0.20;;;;;;;13.01;59.01;98377.19;5454429;26;20113;-73
2024/04/10 06:54:21;;;;;;;0.20;0.10;;;;;;;13.12;58.65;98368.19;5422405;26;20419;-72
2024/04/10 06:56:47;;;;;;;0.73;0.10;;;;;;;13.01;59.35;98397.25;5424125;26;20341;-71
2024/04/10 06:59:13;;;;;;;0.35;0.20;;;;;;;13.06;59.10;98394.97;5452679;26;19994;-68
2024/04/10 07:01:39;;;;;;;2.90;0.25;;;;;;;12.82;60.78;98325.38;5435792;26;20075;-66
2024/04/10 07:04:08;;;;;;;0.47;0.20;;;;;;;12.89;60.08;98413.25;5404252;26;20411;-71
2024/04/10 07:06:33;;;;;;;0.20;0.10;;;;;;;12.84;61.74;98373.78;5442051;26;20073;-66
2024/04/10 07:08:59;;;;;;;0.95;0.20;;;;;;;12.99;58.80;98380.94;5410078;26;20438;-68
2024/04/10 07:11:25;;;;;;;0.30;0.10;;;;;;;12.67;62.03;98351.31;5410795;26;19994;-68
2024/04/10 07:13:52;;;;;;;1.00;0.20;;;;;;;12.95;60.39;98380.47;5403229;26;20456;-69
2024/04/10 07:16:19;;;;;;;1.75;0.35;;;;;;;12.70;61.30;98392.69;5416088;26;19999;-72
2024/04/10 07:18:45;;;;;;;1.30;0.28;;;;;;;12.68;58.64;98432.00;5455586;26;20071;-68
2024/04/10 07:21:12;;;;;;;0.30;0.10;;;;;;;13.02;59.34;98373.59;5414092;26;20151;-70
2024/04/10 07:23:39;;;;;;;0.77;0.20;;;;;;;12.50;58.76;98359.16;5436664;26;19999;-68
2024/04/10 07:26:15;;;;;;;0.80;0.28;;;;;;;12.79;61.13;98407.38;5432418;26;20076;-68
2024/04/10 07:28:46;;;;;;;1.10;0.20;;;;;;;12.77;59.21;98409.34;5405809;26;20953;-69
2024/04/10 07:31:17;;;;;;;0.28;0.10;;;;;;;13.03;58.99;98403.94;5438241;26;20084;-69
2024/04/10 07:33:43;;;;;;;0.52;0.22;;;;;;;12.96;58.63;98407.34;5432704;26;20024;-70
2024/04/10 07:36:13;;;;;;;0.65;0.20;;;;;;;12.84;59.71;98431.19;5415095;26;19998;-68
2024/04/10 07:38:42;;;;;;;1.02;0.20;;;;;;;12.58;63.07;98373.16;5422640;26;20551;-67
2024/04/10 07:41:09;;;;;;;0.90;0.20;;;;;;;12.69;61.34;98417.19;5444440;26;20040;-71
2024/04/10 07:43:35;;;;;;;1.25;0.30;;;;;;;12.78;63.90;98421.41;5439972;26;19998;-67
2024/04/10 07:46:16;;;;;;;0.35;0.10;;;;;;;12.50;63.40;98424.34;5455989;26;20013;-69
2024/04/10 07:48:43;;;;;;;2.25;0.30;;;;;;;12.42;65.77;98432.13;5429620;26;20527;-68
2024/04/10 07:51:09;;;;;;;0.43;0.20;;;;;;;12.25;66.88;98459.16;5459694;26;19999;-68
2024/04/10 07:53:36;;;;;;;0.47;0.20;;;;;;;12.33;65.49;98417.47;5430326;26;20071;-67
2024/04/10 07:56:03;;;;;;;1.08;0.25;;;;;;;12.24;66.38;98421.84;5484222;26;19998;-69
2024/04/10 07:58:31;;;;;;;2.10;0.30;;;;;;;12.29;68.43;98450.03;5407483;26;19998;-69
2024/04/10 08:01:00;;;;;;;0.25;0.20;;;;;;;12.39;69.65;98463.75;5425028;26;20010;-69
2024/04/10 08:03:26;;;;;;;2.45;0.40;;;;;;;12.14;69.55;98473.31;5432859;26;19995;-71
2024/04/10 08:05:55;;;;;;;1.38;0.45;;;;;;;11.79;72.34;98487.28;5409056;26;20019;-70
2024/04/10 08:08:21;;;;;;;4.10;1.00;;;;;;;11.71;73.11;98494.09;5402609;26;20003;-68
2024/04/10 08:10:48;;;;;;;1.85;0.55;;;;;;;11.58;77.09;98511.91;5475896;26;20528;-72
2024/04/10 08:13:16;;;;;;;1.80;0.60;;;;;;;11.59;79.33;98534.41;5488742;25;20826;-65
2024/04/10 08:15:53;;;;;;;3.00;0.75;;;;;;;11.54;79.72;98541.84;5445764;26;19995;-68
2024/04/10 08:18:18;;;;;;;2.45;0.75;;;;;;;11.44;83.12;98538.50;5399882;26;20034;-67
2024/04/10 08:20:46;;;;;;;2.58;0.70;;;;;;;11.64;75.96;98536.53;5457714;26;20369;-66
2024/04/10 08:23:11;;;;;;;0.70;0.30;;;;;;;11.82;77.05;98562.53;5430426;26;20090;-66
2024/04/10 08:25:38;;;;;;;1.45;0.40;;;;;;;11.71;76.89;98553.97;5441048;26;20074;-73
2024/04/10 08:28:06;;;;;;;1.08;0.30;;;;;;;11.65;77.36;98569.44;5437437;26;20006;-70
2024/04/10 08:30:33;;;;;;;1.20;0.40;;;;;;;11.58;76.12;98564.00;5407740;26;19994;-71
2024/04/10 08:33:01;;;;;;;0.30;0.10;;;;;;;11.47;76.42;98567.66;5440878;26;20522;-65
2024/04/10 08:35:29;;;;;;;0.47;0.20;;;;;;;11.66;74.70;98574.50;5446307;26;20261;-69
2024/04/10 08:37:54;;;;;;;0.10;0.10;;;;;;;11.38;73.71;98554.75;5442435;26;20050;-72
2024/04/10 08:40:20;;;;;;;0.93;0.20;;;;;;;11.52;76.44;98580.25;5448339;26;22058;-66
2024/04/10 08:42:50;;;;;;;0.20;0.13;;;;;;;11.44;75.59;98591.38;5406180;26;20408;-67
2024/04/10 08:45:16;;;;;;;0.65;0.30;;;;;;;11.51;79.36;98621.06;5422613;26;19999;-71
2024/04/10 08:47:42;;;;;;;1.52;0.30;;;;;;;11.42;82.49;98634.19;5457749;26;20010;-67
2024/04/10 08:50:08;;;;;;;1.13;0.30;;;;;;;11.40;82.43;98633.50;5458027;26;20078;-70
2024/04/10 08:52:35;;;;;;;2.10;0.20;;;;;;;11.29;84.67;98645.78;5439948;26;20041;-65
2024/04/10 08:55:00;;;;;;;2.55;0.20;;;;;;;11.11;85.13;98671.78;5418059;26;19994;-63
2024/04/10 08:57:28;;;;;;;1.38;0.32;;;;;;;10.99;88.01;98609.69;5447540;26;19995;-66
2024/04/10 08:59:54;;;;;;;0.17;0.17;;;;;;;11.41;82.58;98658.56;5452891;26;20098;-65
2024/04/10 09:02:19;;;;;;;3.10;0.30;;;;;;;11.34;86.11;98677.38;5405044;26;20402;-64
2024/04/10 09:04:47;;;;;;;1.55;0.15;;;;;;;11.27;84.34;98634.69;5442063;26;20013;-66
2024/04/10 09:07:17;;;;;;;2.60;0.50;;;;;;;11.35;84.82;98689.44;5438776;26;20054;-63
2024/04/10 09:09:42;;;;;;;0.80;0.30;;;;;;;11.43;84.86;98687.91;5448706;26;19998;-64
2024/04/10 09:12:08;;;;;;;0.80;0.30;;;;;;;11.08;83.61;98661.69;5444679;26;20601;-65
2024/04/10 09:14:36;;;;;;;0.68;0.30;;;;;;;11.30;86.39;98716.88;5456237;26;20013;-62
2024/04/10 09:17:05;;;;;;;2.25;0.30;;;;;;;10.88;86.90;98673.97;5415216;26;20422;-64
2024/04/10 09:19:31;;;;;;;3.30;0.50;;;;;;;10.82;88.98;98720.53;5462294;26;20087;-68
2024/04/10 09:21:59;;;;;;;2.88;0.75;;;;;;;11.07;88.92;98706.06;5457399;26;20444;-63
2024/04/10 09:24:29;;;;;;;2.22;0.45;;;;;;;11.04;95.50;98701.13;5429108;26;20122;-64
2024/04/10 09:26:55;;;;;;;;;;;;;;;10.84;95.73;98721.22;5444237;26;20003;-64
2024/04/10 09:29:24;;;;;;;2.65;0.50;;;;;;;10.85;94.28;98717.66;5436291;26;19932;-63
2024/04/10 09:31:53;;;;;;;;;;;;;;;10.47;96.48;98711.63;5441129;26;20017;-60
2024/04/10 09:34:21;;;;;;;4.05;0.70;;;;;;;10.68;99.21;98704.47;5464232;26;19924;-64
2024/04/10 09:36:47;;;;;;;5.63;1.50;;;;;;;10.59;99.81;98671.50;5440638;26;20010;-61
2024/04/10 09:39:13;;;;;;;4.03;1.23;;;;;;;10.39;98.55;98665.56;5419478;26;20154;-61
2024/04/10 09:41:44;;;;;;;5.38;1.10;;;;;;;10.70;99.28;98707.72;5441968;26;20013;-61
2024/04/10 09:44:10;;;;;;;1.95;0.57;;;;;;;10.75;96.87;98704.69;5445271;26;20078;-60
2024/04/10 09:46:37;;;;;;;2.60;0.60;;;;;;;10.85;96.22;98650.03;5418729;26;20021;-62
2024/04/10 09:49:14;;;;;;;0.85;0.22;;;;;;;11.03;100.00;98694.31;5459599;26;19994;-60
2024/04/10 09:51:45;;;;;;;1.38;0.50;;;;;;;11.06;100.00;98689.63;5418533;26;20278;-65
2024/04/10 09:54:13;;;;;;;1.15;0.40;;;;;;;11.03;98.76;98668.28;5404999;26;20006;-64
2024/04/10 09:56:41;;;;;;;0.93;0.22;;;;;;;11.22;92.67;98657.72;5422969;26;20009;-62
2024/04/10 09:59:09;;;;;;;1.90;0.50;;;;;;;11.20;88.29;98627.63;5451639;26;20578;-64
2024/04/10 10:01:36;;;;;;;1.20;0.40;;;;;;;11.46;87.45;98644.16;5438146;26;19999;-62
2024/04/10 10:04:02;;;;;;;1.38;0.40;;;;;;;11.57;81.90;98639.66;5409948;26;19990;-64
2024/04/10 10:06:31;;;;;;;1.63;0.60;;;;;;;11.76;84.94;98631.69;5415838;26;19997;-68
2024/04/10 10:08:59;;;;;;;3.40;0.60;;;;;;;11.70;80.66;98629.66;5411445;26;20005;-68
2024/04/10 10:11:24;;;;;;;0.90;0.30;;;;;;;11.77;80.47;98632.50;5449265;26;20013;-66
2024/04/10 10:14:02;;;;;;;2.10;0.50;;;;;;;12.06;78.64;98638.25;5415794;26;20337;-65
2024/04/10 10:16:28;;;;;;;1.48;0.50;;;;;;;12.05;77.18;98634.03;5413212;26;20064;-64
2024/04/10 10:19:01;;;;;;;1.85;0.30;;;;;;;12.22;80.42;98627.13;5424742;26;20014;-69
2024/04/10 10:21:28;;;;;;;0.40;0.20;;;;;;;12.21;74.11;98633.31;5434488;26;20002;-67
2024/04/10 10:24:06;;;;;;;1.42;0.40;;;;;;;12.03;79.80;98669.00;5404586;26;19991;-66
2024/04/10 10:26:35;;;;;;;1.90;0.63;;;;;;;12.02;75.98;98676.03;5434454;26;20013;-67
2024/04/10 10:29:05;;;;;;;2.08;0.40;;;;;;;12.17;78.89;98657.22;5409951;26;20054;-64
2024/04/10 10:31:31;;;;;;;1.08;0.25;;;;;;;12.05;78.58;98659.28;5410142;26;20014;-67
2024/04/10 10:34:00;;;;;;;2.17;0.40;;;;;;;12.04;79.70;98668.88;5449491;26;19994;-67
2024/04/10 10:36:27;;;;;;;2.03;0.60;;;;;;;12.14;79.39;98674.00;5450959;26;20469;-71
2024/04/10 10:39:10;;;;;;;3.03;0.80;;;;;;;12.05;82.59;98700.97;5441631;26;20005;-66
2024/04/10 10:41:38;;;;;;;2.22;0.40;;;;;;;12.09;80.48;98691.88;5471932;26;20018;-66
2024/04/10 10:44:06;;;;;;;1.50;0.38;;;;;;;11.90;88.18;98688.50;5417020;26;20715;-66
2024/04/10 10:46:40;;;;;;;2.80;0.55;;;;;;;12.00;91.35;98703.22;5423630;26;20103;-65
2024/04/10 10:49:16;;;;;;;2.22;0.60;;;;;;;11.84;91.08;98719.50;5462622;26;20002;-68
2024/04/10 10:51:42;;;;;;;1.75;0.40;;;;;;;11.74;93.82;98732.63;5454888;26;20372;-65
2024/04/10 10:54:09;;;;;;;2.25;0.40;;;;;;;11.51;97.90;98730.44;5395531;26;20066;-66
2024/04/10 10:56:37;;;;;;;3.30;0.40;;;;;;;11.52;100.00;98745.09;5432214;26;19994;-65
2024/04/10 10:59:09;;;;;;;1.85;0.43;;;;;;;11.48;98.60;98733.34;5430811;26;19999;-63
2024/04/10 11:01:35;;;;;;;2.03;0.43;;;;;;;11.32;95.52;98741.00;5462336;26;20017;-68
2024/04/10 11:04:13;;;;;;;1.02;0.38;;;;;;;11.18;100.00;98744.88;5433082;26;19999;-63
2024/04/10 11:06:38;;;;;;;2.50;0.40;;;;;;;11.23;96.92;98741.88;5469546;26;20027;-62
2024/04/10 11:09:10;;;;;;;1.02;0.32;;;;;;;11.25;92.86;98756.34;5400949;26;20003;-62
2024/04/10 11:11:42;;;;;;;1.08;0.30;;;;;;;11.17;95.97;98764.09;5429914;26;20025;-64
2024/04/10 11:14:13;;;;;;;2.17;0.70;;;;;;;11.04;100.00;98753.97;5419930;26;20003;-66
2024/04/10 11:16:40;;;;;;;2.40;0.35;;;;;;;11.00;98.20;98763.03;5457248;26;20005;-65
2024/04/10 11:19:09;;;;;;;2.47;0.55;;;;;;;11.02;96.23;98752.50;5402543;26;20079;-64
2024/04/10 11:21:34;;;;;;;1.55;0.40;;;;;;;11.15;98.63;98805.88;5430471;26;19998;-65
2024/04/10 11:24:02;;;;;;;1.55;0.50;;;;;;;11.16;100.00;98804.06;5430771;26;20027;-61
2024/04/10 11:26:28;;;;;;;2.42;0.60;;;;;;;11.05;100.00;98807.69;5402047;26;20005;-64
2024/04/10 11:28:54;;;;;;;3.58;0.75;;;;;;;10.84;100.00;98812.25;5430519;26;19999;-63
2024/04/10 11:31:22;;;;;;;3.35;0.60;;;;;;;10.59;100.00;98778.13;5415898;26;20006;-66
2024/04/10 11:33:50;;;;;;;2.85;0.90;;;;;;;11.06;100.00;98808.50;5399919;26;20022;-65